createdAt,value
2019-04-06T00:00:38.054Z,40.20
2019-04-06T00:03:08.253Z,38.60
2019-04-06T00:05:38.194Z,36.53
2019-04-06T00:08:08.082Z,38.17
2019-04-06T00:10:38.003Z,34.83
2019-04-06T00:13:07.945Z,38.60
2019-04-06T00:15:37.886Z,38.30
2019-04-06T00:18:07.795Z,37.43
2019-04-06T00:20:37.713Z,35.53
2019-04-06T00:23:07.623Z,39.90
2019-04-06T00:25:44.262Z,37.23
2019-04-06T00:28:09.303Z,35.30
2019-04-06T00:30:53.546Z,35.03
2019-04-06T00:33:23.461Z,33.17
2019-04-06T00:35:53.326Z,37.07
2019-04-06T00:38:23.545Z,37.97
2019-04-06T00:40:53.391Z,40.27
2019-04-06T00:43:23.386Z,39.07
2019-04-06T00:45:53.327Z,36.63
2019-04-06T00:48:23.245Z,38.07
2019-04-06T00:50:53.079Z,36.60
2019-04-06T00:53:23.008Z,34.93
2019-04-06T00:55:55.959Z,36.93
2019-04-06T00:58:24.504Z,35.33
2019-04-06T01:00:54.727Z,34.70
2019-04-06T01:03:24.690Z,33.43
2019-04-06T01:05:54.630Z,33.43
2019-04-06T01:08:24.512Z,35.30
2019-04-06T01:10:54.395Z,34.20
2019-04-06T01:13:24.289Z,32.67
2019-04-06T01:15:54.289Z,38.97
2019-04-06T01:18:23.564Z,39.47
2019-04-06T01:20:53.356Z,38.30
2019-04-06T01:23:23.263Z,33.37
2019-04-06T01:25:53.226Z,36.37
2019-04-06T01:28:23.236Z,35.43
2019-04-06T01:30:53.239Z,33.50
2019-04-06T01:33:23.481Z,33.40
2019-04-06T01:35:53.524Z,38.23
2019-04-06T01:38:23.483Z,32.97
2019-04-06T01:40:53.478Z,37.70
2019-04-06T01:43:23.398Z,37.87
2019-04-06T01:45:53.301Z,32.77
2019-04-06T01:48:23.229Z,35.13
2019-04-06T01:50:53.089Z,31.97
2019-04-06T01:53:23.034Z,33.93
2019-04-06T01:55:52.920Z,33.83
2019-04-06T01:58:22.879Z,35.47
2019-04-06T02:01:06.295Z,31.43
2019-04-06T02:03:36.269Z,32.00
2019-04-06T02:06:06.353Z,31.47
2019-04-06T02:08:36.217Z,38.77
2019-04-06T02:11:06.295Z,33.60
2019-04-06T02:13:36.186Z,38.77
2019-04-06T02:16:06.513Z,35.50
2019-04-06T02:18:36.338Z,35.53
2019-04-06T02:21:06.265Z,38.57
2019-04-06T02:23:36.158Z,34.23
2019-04-06T02:26:06.162Z,38.33
2019-04-06T02:28:36.109Z,34.33
2019-04-06T02:31:09.888Z,33.30
2019-04-06T02:34:10.965Z,33.07
2019-04-06T02:37:08.896Z,34.80
2019-04-06T02:39:48.759Z,37.83
2019-04-06T02:42:22.489Z,36.33
2019-04-06T02:44:53.046Z,37.33
2019-04-06T02:47:23.702Z,36.63
2019-04-06T02:49:53.896Z,36.37
2019-04-06T02:52:23.916Z,31.63
2019-04-06T02:54:53.859Z,37.87
2019-04-06T02:57:23.794Z,34.13
2019-04-06T02:59:53.605Z,33.17
2019-04-06T03:02:23.475Z,34.43
2019-04-06T03:04:53.765Z,35.67
2019-04-06T03:07:23.771Z,36.63
2019-04-06T03:09:53.681Z,39.83
2019-04-06T03:12:23.741Z,31.60
2019-04-06T03:14:53.628Z,32.97
2019-04-06T03:17:23.677Z,31.73
2019-04-06T03:19:53.580Z,42.20
2019-04-06T03:22:23.498Z,35.03
2019-04-06T03:24:53.408Z,33.50
2019-04-06T03:27:23.327Z,34.13
2019-04-06T03:29:58.177Z,30.03
2019-04-06T03:32:24.806Z,35.07
2019-04-06T03:34:54.795Z,37.37
2019-04-06T03:37:24.790Z,29.73
2019-04-06T03:39:54.702Z,32.30
2019-04-06T03:42:24.649Z,33.27
2019-04-06T03:44:54.558Z,31.40
2019-04-06T03:47:24.498Z,34.03
2019-04-06T03:49:54.429Z,32.00
2019-04-06T03:52:24.583Z,34.57
2019-04-06T03:54:54.839Z,35.20
2019-04-06T03:57:25.215Z,35.43
2019-04-06T03:59:55.099Z,33.10
2019-04-06T04:02:25.142Z,36.90
2019-04-06T04:04:55.060Z,34.73
2019-04-06T04:07:24.990Z,35.63
2019-04-06T04:09:54.994Z,38.03
2019-04-06T04:12:25.057Z,37.33
2019-04-06T04:14:54.892Z,37.67
2019-04-06T04:17:24.850Z,33.30
2019-04-06T04:19:54.780Z,35.80
2019-04-06T04:22:25.146Z,30.03
2019-04-06T04:24:55.074Z,39.57
2019-04-06T04:27:29.840Z,37.67
2019-04-06T04:29:56.631Z,36.73
2019-04-06T04:32:26.845Z,34.50
2019-04-06T04:34:56.841Z,35.07
2019-04-06T04:37:26.800Z,36.53
2019-04-06T04:39:56.784Z,38.17
2019-04-06T04:42:26.746Z,40.03
2019-04-06T04:44:56.688Z,34.87
2019-04-06T04:47:26.597Z,40.10
2019-04-06T04:49:56.538Z,36.53
2019-04-06T04:52:26.488Z,39.33
2019-04-06T04:54:56.462Z,40.63
2019-04-06T04:57:26.353Z,34.87
2019-04-06T04:59:56.238Z,36.67
2019-04-06T05:02:26.163Z,46.43
2019-04-06T05:04:56.202Z,33.37
2019-04-06T05:07:26.269Z,37.83
2019-04-06T05:09:56.149Z,38.00
2019-04-06T05:12:26.089Z,37.77
2019-04-06T05:15:02.726Z,37.70
2019-04-06T05:17:33.139Z,43.80
2019-04-06T05:20:03.151Z,34.57
2019-04-06T05:22:33.055Z,38.57
2019-04-06T05:25:03.323Z,38.47
2019-04-06T05:27:33.334Z,36.00
2019-04-06T05:30:03.266Z,39.23
2019-04-06T05:32:33.176Z,39.60
2019-04-06T05:35:03.113Z,36.60
2019-04-06T05:37:33.256Z,38.37
2019-04-06T05:40:03.114Z,42.13
2019-04-06T05:42:33.041Z,39.10
2019-04-06T05:45:03.036Z,39.23
2019-04-06T05:47:32.941Z,39.33
2019-04-06T05:50:02.782Z,36.47
2019-04-06T05:52:32.994Z,39.07
2019-04-06T05:55:02.942Z,36.60
2019-04-06T05:57:33.443Z,37.80
2019-04-06T06:00:03.471Z,34.77
2019-04-06T06:02:33.480Z,40.00
2019-04-06T06:05:04.545Z,37.20
2019-04-06T06:07:34.462Z,39.27
2019-04-06T06:10:05.609Z,41.27
2019-04-06T06:12:35.509Z,33.23
2019-04-06T06:15:06.181Z,42.83
2019-04-06T06:17:36.457Z,37.70
2019-04-06T06:20:06.543Z,34.43
2019-04-06T06:22:36.452Z,38.10
2019-04-06T06:25:06.832Z,37.83
2019-04-06T06:27:36.721Z,39.73
2019-04-06T06:30:08.999Z,36.13
2019-04-06T06:32:39.109Z,34.27
2019-04-06T06:35:09.107Z,35.95
2019-04-06T06:37:39.003Z,39.03
2019-04-06T06:40:09.253Z,37.80
2019-04-06T06:42:39.282Z,41.20
2019-04-06T06:45:16.880Z,38.77
2019-04-06T06:47:47.246Z,35.97
2019-04-06T06:50:17.166Z,34.07
2019-04-06T06:52:46.993Z,33.00
2019-04-06T06:55:17.161Z,36.47
2019-04-06T06:57:47.044Z,39.70
2019-04-06T07:00:17.373Z,38.40
2019-04-06T07:02:47.280Z,40.23
2019-04-06T07:05:17.174Z,42.13
2019-04-06T07:07:47.125Z,38.70
2019-04-06T07:10:17.149Z,41.43
2019-04-06T07:12:46.973Z,36.10
2019-04-06T07:15:16.972Z,35.87
2019-04-06T07:17:46.945Z,44.33
2019-04-06T07:20:17.382Z,40.23
2019-04-06T07:22:47.693Z,40.20
2019-04-06T07:25:17.622Z,41.33
2019-04-06T07:27:47.461Z,38.43
2019-04-06T07:30:17.390Z,40.50
2019-04-06T07:32:47.311Z,41.83
2019-04-06T07:35:17.223Z,39.70
2019-04-06T07:37:47.164Z,45.80
2019-04-06T07:40:17.434Z,44.83
2019-04-06T07:42:47.343Z,40.63
2019-04-06T07:45:17.183Z,42.77
2019-04-06T07:47:47.098Z,42.27
2019-04-06T07:50:16.932Z,42.07
2019-04-06T07:52:46.874Z,41.60
2019-04-06T07:55:16.790Z,40.37
2019-04-06T07:57:46.713Z,41.57
2019-04-06T08:00:17.201Z,42.43
2019-04-06T08:02:47.139Z,44.03
2019-04-06T08:05:17.076Z,41.10
2019-04-06T08:07:47.001Z,39.37
2019-04-06T08:10:16.888Z,47.67
2019-04-06T08:12:46.780Z,41.50
2019-04-06T08:15:16.694Z,40.73
2019-04-06T08:17:46.635Z,42.50
2019-04-06T08:20:16.653Z,41.67
2019-04-06T08:22:46.642Z,38.77
2019-04-06T08:25:16.542Z,41.30
2019-04-06T08:27:46.480Z,45.03
2019-04-06T08:30:17.009Z,44.73
2019-04-06T08:32:46.893Z,42.67
2019-04-06T08:35:25.216Z,39.93
2019-04-06T08:37:48.615Z,45.43
2019-04-06T08:40:18.709Z,35.83
2019-04-06T08:42:48.837Z,38.57
2019-04-06T08:45:19.469Z,37.47
2019-04-06T08:47:49.595Z,35.27
2019-04-06T08:50:19.070Z,36.87
2019-04-06T08:52:48.881Z,34.47
2019-04-06T08:55:18.798Z,35.87
2019-04-06T08:57:48.733Z,39.93
2019-04-06T09:00:19.063Z,35.93
2019-04-06T09:02:53.111Z,35.73
2019-04-06T09:05:23.055Z,34.13
2019-04-06T09:07:53.056Z,38.03
2019-04-06T09:10:22.982Z,36.83
2019-04-06T09:12:53.438Z,35.17
2019-04-06T09:15:23.376Z,39.10
2019-04-06T09:17:53.366Z,35.63
2019-04-06T09:20:23.270Z,34.80
2019-04-06T09:22:53.250Z,33.63
2019-04-06T09:25:23.128Z,37.20
2019-04-06T09:27:53.001Z,32.33
2019-04-06T09:30:22.922Z,32.50
2019-04-06T09:32:52.853Z,33.50
2019-04-06T09:35:22.767Z,31.60
2019-04-06T09:37:52.714Z,31.87
2019-04-06T09:40:21.955Z,29.13
2019-04-06T09:42:51.777Z,32.50
2019-04-06T09:45:43.813Z,30.63
2019-04-06T09:48:20.615Z,30.13
2019-04-06T09:51:12.405Z,33.50
2019-04-06T09:54:06.202Z,31.03
2019-04-06T09:57:07.080Z,32.23
2019-04-06T09:59:56.069Z,29.47
2019-04-06T10:02:34.894Z,29.90
2019-04-06T10:05:24.682Z,30.27
2019-04-06T10:08:12.465Z,28.03
2019-04-06T10:11:12.933Z,29.17
2019-04-06T10:14:04.826Z,28.73
2019-04-06T10:16:53.686Z,28.87
2019-04-06T10:19:45.272Z,29.67
2019-04-06T10:22:44.598Z,28.53
2019-04-06T10:25:30.041Z,30.00
2019-04-06T10:28:21.925Z,27.57
2019-04-06T10:31:06.206Z,25.73
2019-04-06T10:34:10.471Z,29.53
2019-04-06T10:36:52.669Z,26.60
2019-04-06T10:39:50.251Z,25.40
2019-04-06T10:42:39.175Z,23.43
2019-04-06T10:45:40.315Z,26.33
2019-04-06T10:48:47.647Z,21.50
2019-04-06T10:51:35.541Z,19.53
2019-04-06T10:54:19.786Z,19.97
2019-04-06T10:57:06.817Z,22.37
2019-04-06T11:00:01.479Z,21.13
2019-04-06T11:03:03.280Z,21.20
2019-04-06T11:05:57.890Z,19.63
2019-04-06T11:08:35.780Z,18.73
2019-04-06T11:11:30.814Z,21.87
2019-04-06T11:14:18.631Z,23.73
2019-04-06T11:17:04.606Z,19.83
2019-04-06T11:19:53.882Z,20.57
2019-04-06T11:22:42.794Z,22.60
2019-04-06T11:25:30.683Z,22.50
2019-04-06T11:28:22.425Z,23.27
2019-04-06T11:31:23.446Z,24.30
2019-04-06T11:34:12.505Z,21.67
2019-04-06T11:36:59.089Z,21.20
2019-04-06T11:39:47.101Z,22.87
2019-04-06T11:42:22.689Z,21.20
2019-04-06T11:45:20.636Z,22.00
2019-04-06T11:48:12.238Z,24.47
2019-04-06T11:50:57.401Z,22.17
2019-04-06T11:53:48.974Z,18.53
2019-04-06T11:56:43.799Z,20.57
2019-04-06T11:59:32.726Z,17.47
2019-04-06T12:02:21.799Z,21.03
2019-04-06T12:05:01.853Z,18.97
2019-04-06T12:07:49.885Z,19.80
2019-04-06T12:10:47.836Z,21.60
2019-04-06T12:13:55.629Z,19.20
2019-04-06T12:16:44.501Z,17.07
2019-04-06T12:19:42.473Z,17.47
2019-04-06T12:22:30.453Z,15.70
2019-04-06T12:25:31.441Z,14.03
2019-04-06T12:28:21.779Z,16.10
2019-04-06T12:31:05.303Z,17.17
2019-04-06T12:33:51.639Z,17.43
2019-04-06T12:36:50.190Z,14.53
2019-04-06T12:39:52.420Z,15.60
2019-04-06T12:42:31.596Z,19.33
2019-04-06T12:45:26.517Z,18.27
2019-04-06T12:48:11.862Z,17.23
2019-04-06T12:50:56.538Z,14.40
2019-04-06T12:53:47.813Z,18.33
2019-04-06T12:56:35.058Z,17.47
2019-04-06T12:59:35.676Z,19.50
2019-04-06T13:02:19.776Z,22.87
2019-04-06T13:05:14.659Z,16.63
2019-04-06T13:08:06.681Z,54.33
2019-04-06T13:11:04.541Z,17.20
2019-04-06T13:13:56.150Z,16.87
2019-04-06T13:16:31.744Z,13.90
2019-04-06T13:19:29.705Z,16.10
2019-04-06T13:22:22.908Z,13.03
2019-04-06T13:25:15.074Z,13.83
2019-04-06T13:28:16.427Z,14.77
2019-04-06T13:31:05.337Z,13.13
2019-04-06T13:33:51.164Z,14.47
2019-04-06T13:36:40.026Z,12.13
2019-04-06T13:39:16.398Z,11.33
2019-04-06T13:41:59.797Z,12.27
2019-04-06T13:44:39.471Z,10.87
2019-04-06T13:47:46.433Z,12.27
2019-04-06T13:50:30.828Z,15.50
2019-04-06T13:53:15.060Z,9.83
2019-04-06T13:56:00.944Z,9.00
2019-04-06T13:58:46.501Z,7.80
2019-04-06T14:01:34.111Z,10.23
2019-04-06T14:04:10.422Z,8.93
2019-04-06T14:06:50.573Z,9.53
2019-04-06T14:09:42.256Z,7.67
2019-04-06T14:12:43.708Z,8.03
2019-04-06T14:15:36.036Z,10.07
2019-04-06T14:18:15.776Z,9.70
2019-04-06T14:21:03.361Z,8.50
2019-04-06T14:23:57.566Z,8.70
2019-04-06T14:26:41.486Z,8.10
2019-04-06T14:29:18.509Z,7.47
2019-04-06T14:32:06.563Z,9.77
2019-04-06T14:34:51.521Z,13.80
2019-04-06T14:37:43.583Z,8.83
2019-04-06T14:40:30.469Z,9.77
2019-04-06T14:43:14.509Z,9.03
2019-04-06T14:46:02.354Z,8.53
2019-04-06T14:48:44.663Z,11.10
2019-04-06T14:51:36.251Z,8.10
2019-04-06T14:54:26.286Z,8.97
2019-04-06T14:57:17.330Z,7.93
2019-04-06T15:00:05.019Z,7.53
2019-04-06T15:02:52.569Z,7.63
2019-04-06T15:05:37.648Z,7.00
2019-04-06T15:08:14.320Z,8.80
2019-04-06T15:11:12.006Z,7.67
2019-04-06T15:13:59.707Z,9.00
2019-04-06T15:16:47.184Z,7.63
2019-04-06T15:19:33.966Z,6.93
2019-04-06T15:22:16.889Z,7.70
2019-04-06T15:25:15.011Z,7.20
2019-04-06T15:28:18.944Z,7.57
2019-04-06T15:31:17.124Z,7.63
2019-04-06T15:34:13.300Z,7.63
2019-04-06T15:37:01.126Z,6.87
2019-04-06T15:39:41.453Z,6.93
2019-04-06T15:42:17.743Z,6.97
2019-04-06T15:45:16.100Z,6.07
2019-04-06T15:47:53.513Z,8.60
2019-04-06T15:50:48.533Z,6.60
2019-04-06T15:53:40.280Z,7.13
2019-04-06T15:56:29.354Z,7.53
2019-04-06T15:59:21.358Z,8.40
2019-04-06T16:02:01.479Z,9.70
2019-04-06T16:04:37.928Z,13.77
2019-04-06T16:07:36.202Z,6.70
2019-04-06T16:10:23.894Z,8.33
2019-04-06T16:13:26.880Z,7.17
2019-04-06T16:16:15.875Z,8.63
2019-04-06T16:19:03.831Z,7.10
2019-04-06T16:21:51.395Z,11.37
2019-04-06T16:24:40.311Z,11.77
2019-04-06T16:27:22.520Z,7.83
2019-04-06T16:30:14.411Z,26.27
2019-04-06T16:33:18.386Z,8.23
2019-04-06T16:36:05.103Z,7.33
2019-04-06T16:38:52.858Z,7.47
2019-04-06T16:42:00.221Z,16.00
2019-04-06T16:44:44.120Z,6.40
2019-04-06T16:47:34.736Z,8.53
2019-04-06T16:50:24.166Z,7.00
2019-04-06T16:53:22.329Z,7.77
2019-04-06T16:56:02.307Z,5.37
2019-04-06T16:59:00.002Z,6.93
2019-04-06T17:01:34.791Z,9.77
2019-04-06T17:04:25.317Z,6.63
2019-04-06T17:07:19.589Z,6.73
2019-04-06T17:10:02.553Z,6.57
2019-04-06T17:13:06.527Z,8.80
2019-04-06T17:16:01.816Z,6.90
2019-04-06T17:18:50.701Z,6.87
2019-04-06T17:21:26.617Z,7.23
2019-04-06T17:24:18.655Z,11.43
2019-04-06T17:27:07.516Z,7.80
2019-04-06T17:30:02.476Z,8.50
2019-04-06T17:33:01.913Z,5.70
2019-04-06T17:35:39.142Z,6.83
2019-04-06T17:38:30.741Z,7.40
2019-04-06T17:41:26.034Z,7.33
2019-04-06T17:44:08.234Z,7.97
2019-04-06T17:47:00.459Z,9.30
2019-04-06T17:49:48.411Z,7.83
2019-04-06T17:52:50.233Z,7.77
2019-04-06T17:55:40.774Z,9.13
2019-04-06T17:58:32.677Z,10.33
2019-04-06T18:01:12.884Z,10.70
2019-04-06T18:04:08.280Z,8.00
2019-04-06T18:07:08.179Z,8.70
2019-04-06T18:10:00.306Z,9.40
2019-04-06T18:12:49.622Z,9.17
2019-04-06T18:15:20.101Z,9.83
2019-04-06T18:17:50.462Z,9.67
2019-04-06T18:20:20.549Z,9.70
2019-04-06T18:22:50.644Z,9.37
2019-04-06T18:25:20.752Z,10.03
2019-04-06T18:27:50.701Z,10.97
2019-04-06T18:30:21.305Z,8.50
2019-04-06T18:33:00.711Z,12.20
2019-04-06T18:35:27.187Z,13.20
2019-04-06T18:38:13.598Z,16.13
2019-04-06T18:40:43.598Z,14.63
2019-04-06T18:43:14.256Z,14.00
2019-04-06T18:45:44.316Z,15.83
2019-04-06T18:48:14.507Z,11.50
2019-04-06T18:50:44.427Z,9.57
2019-04-06T18:53:14.370Z,7.40
2019-04-06T18:55:45.374Z,8.10
2019-04-06T18:58:15.390Z,9.20
2019-04-06T19:00:45.737Z,9.13
2019-04-06T19:03:16.810Z,7.27
2019-04-06T19:05:46.862Z,11.80
2019-04-06T19:08:16.843Z,6.53
2019-04-06T19:10:46.917Z,8.87
2019-04-06T19:13:16.919Z,6.83
2019-04-06T19:15:46.811Z,7.10
2019-04-06T19:18:16.839Z,5.30
2019-04-06T19:20:47.274Z,7.87
2019-04-06T19:23:17.487Z,6.00
2019-04-06T19:25:47.499Z,6.20
2019-04-06T19:28:17.523Z,6.87
2019-04-06T19:30:47.729Z,6.77
2019-04-06T19:33:25.058Z,7.37
2019-04-06T19:35:49.486Z,6.43
2019-04-06T19:38:19.482Z,5.63
2019-04-06T19:40:49.538Z,10.27
2019-04-06T19:43:19.462Z,6.50
2019-04-06T19:45:49.649Z,5.53
2019-04-06T19:48:20.008Z,5.70
2019-04-06T19:50:49.959Z,7.13
2019-04-06T19:53:20.165Z,7.33
2019-04-06T19:55:50.114Z,6.47
2019-04-06T19:58:20.465Z,6.03
2019-04-06T20:00:51.023Z,5.90
2019-04-06T20:03:21.415Z,5.47
2019-04-06T20:05:51.682Z,5.97
2019-04-06T20:08:22.192Z,5.73
2019-04-06T20:10:53.125Z,5.87
2019-04-06T20:13:23.250Z,6.03
2019-04-06T20:15:53.192Z,7.07
2019-04-06T20:18:23.673Z,6.07
2019-04-06T20:20:53.044Z,8.33
2019-04-06T20:23:23.138Z,11.47
2019-04-06T20:25:53.123Z,5.97
2019-04-06T20:28:22.400Z,5.50
2019-04-06T20:30:52.499Z,5.23
2019-04-06T20:33:23.110Z,4.33
2019-04-06T20:35:53.255Z,4.67
2019-04-06T20:38:22.943Z,7.63
2019-04-06T20:40:52.625Z,6.17
2019-04-06T20:43:22.917Z,5.10
2019-04-06T20:45:52.981Z,7.67
2019-04-06T20:48:23.182Z,5.73
2019-04-06T20:50:53.095Z,4.83
2019-04-06T20:53:23.003Z,6.13
2019-04-06T20:55:52.964Z,5.33
2019-04-06T20:58:22.821Z,5.80
2019-04-06T21:00:52.468Z,5.70
2019-04-06T21:03:23.219Z,5.87
2019-04-06T21:05:53.241Z,6.20
2019-04-06T21:08:23.187Z,5.17
2019-04-06T21:10:53.288Z,4.67
2019-04-06T21:13:23.418Z,6.53
2019-04-06T21:15:53.481Z,4.90
2019-04-06T21:18:23.337Z,5.20
2019-04-06T21:20:53.376Z,4.97
2019-04-06T21:23:23.505Z,11.17
2019-04-06T21:25:54.024Z,6.83
2019-04-06T21:28:24.497Z,6.13
2019-04-06T21:30:54.566Z,10.13
2019-04-06T21:33:24.482Z,6.13
2019-04-06T21:35:54.842Z,5.40
2019-04-06T21:38:25.140Z,5.93
2019-04-06T21:40:55.200Z,7.13
2019-04-06T21:43:25.113Z,4.67
2019-04-06T21:45:55.058Z,8.33
2019-04-06T21:48:24.992Z,5.30
2019-04-06T21:50:54.922Z,4.13
2019-04-06T21:53:25.400Z,5.13
2019-04-06T21:56:01.641Z,7.47
2019-04-06T21:58:27.147Z,5.77
2019-04-06T22:00:58.638Z,5.90
2019-04-06T22:03:28.462Z,5.23
2019-04-06T22:05:58.342Z,4.40
2019-04-06T22:08:28.270Z,5.07
2019-04-06T22:10:58.219Z,3.47
2019-04-06T22:13:28.426Z,3.67
2019-04-06T22:15:58.447Z,5.97
2019-04-06T22:18:28.430Z,4.37
2019-04-06T22:20:58.972Z,4.50
2019-04-06T22:23:39.760Z,3.47
2019-04-06T22:26:01.561Z,3.80
2019-04-06T22:28:31.477Z,5.20
2019-04-06T22:31:01.803Z,3.27
2019-04-06T22:33:31.722Z,3.23
2019-04-06T22:36:02.095Z,4.47
2019-04-06T22:38:32.125Z,3.50
2019-04-06T22:41:02.389Z,3.33
2019-04-06T22:43:32.802Z,2.83
2019-04-06T22:46:03.284Z,4.57
2019-04-06T22:48:33.539Z,3.87
2019-04-06T22:51:03.540Z,4.07
2019-04-06T22:53:33.437Z,4.87
2019-04-06T22:56:03.384Z,4.40
2019-04-06T22:58:33.387Z,3.00
2019-04-06T23:01:12.085Z,4.50
2019-04-06T23:04:13.381Z,3.40
2019-04-06T23:06:48.262Z,3.93
2019-04-06T23:09:18.158Z,3.80
2019-04-06T23:11:48.068Z,3.07
2019-04-06T23:14:17.968Z,3.07
2019-04-06T23:16:47.934Z,3.57
2019-04-06T23:19:17.839Z,2.97
2019-04-06T23:21:47.789Z,2.70
2019-04-06T23:24:17.709Z,3.30
2019-04-06T23:26:47.909Z,3.37
2019-04-06T23:29:17.904Z,2.70
2019-04-06T23:31:48.339Z,2.50
2019-04-06T23:34:18.380Z,3.37
2019-04-06T23:36:48.301Z,3.83
2019-04-06T23:39:18.455Z,2.87
2019-04-06T23:41:48.734Z,2.87
2019-04-06T23:44:18.648Z,2.77
2019-04-06T23:46:48.773Z,3.20
2019-04-06T23:49:19.115Z,6.07
2019-04-06T23:51:49.286Z,4.30
2019-04-06T23:54:19.517Z,3.17
2019-04-06T23:56:49.680Z,2.87
2019-04-06T23:59:20.065Z,4.80
